createdAt,value
2023-02-16T00:00:19.504Z,98789.53
2023-02-16T00:02:48.207Z,98792.97
2023-02-16T00:05:26.303Z,98789.53
2023-02-16T00:07:55.664Z,98780.75
2023-02-16T00:10:24.140Z,98779.84
2023-02-16T00:13:11.900Z,98785.84
2023-02-16T00:15:40.862Z,98775.47
2023-02-16T00:18:18.466Z,98782.38
2023-02-16T00:20:47.225Z,98774.47
2023-02-16T00:23:15.545Z,98775.25
2023-02-16T00:25:43.987Z,98778.53
2023-02-16T00:28:19.601Z,98769.75
2023-02-16T00:30:50.189Z,98781.91
2023-02-16T00:33:21.373Z,98778.53
2023-02-16T00:35:50.095Z,98778.38
2023-02-16T00:38:18.344Z,98769.59
2023-02-16T00:40:46.741Z,98773.84
2023-02-16T00:43:26.911Z,98766.91
2023-02-16T00:45:56.360Z,98766.13
2023-02-16T00:48:25.280Z,98767.84
2023-02-16T00:50:53.508Z,98770.38
2023-02-16T00:53:21.735Z,98763.44
2023-02-16T00:55:50.060Z,98764.22
2023-02-16T00:58:26.182Z,98766.06
2023-02-16T01:00:59.743Z,98766.06
2023-02-16T01:03:30.537Z,98769.47
2023-02-16T01:06:12.743Z,98771.16
2023-02-16T01:08:58.377Z,98767.63
2023-02-16T01:11:27.039Z,98760.69
2023-02-16T01:13:58.161Z,98760.69
2023-02-16T01:16:28.890Z,98765.84
2023-02-16T01:18:57.144Z,98768.38
2023-02-16T01:21:25.344Z,98766.63
2023-02-16T01:23:53.577Z,98752.81
2023-02-16T01:26:22.590Z,98755.44
2023-02-16T01:28:50.863Z,98749.53
2023-02-16T01:31:20.624Z,98745.13
2023-02-16T01:33:50.662Z,98746.97
2023-02-16T01:36:25.231Z,98738.41
2023-02-16T01:38:53.514Z,98747.03
2023-02-16T01:41:36.702Z,98734.09
2023-02-16T01:44:07.187Z,98737.53
2023-02-16T01:46:49.273Z,98733.38
2023-02-16T01:49:20.916Z,98725.59
2023-02-16T01:51:57.976Z,98723.06
2023-02-16T01:54:42.316Z,98728.28
2023-02-16T01:57:24.644Z,98721.38
2023-02-16T02:00:17.403Z,98726.75
2023-02-16T02:02:49.814Z,98719.91
2023-02-16T02:05:37.070Z,98715.63
2023-02-16T02:08:16.319Z,98719.25
2023-02-16T02:10:58.849Z,98711.47
2023-02-16T02:13:34.309Z,98711.53
2023-02-16T02:16:03.263Z,98715.00
2023-02-16T02:18:33.012Z,98710.59
2023-02-16T02:22:03.358Z,98711.59
2023-02-16T02:25:02.686Z,98706.50
2023-02-16T02:27:34.743Z,98703.97
2023-02-16T02:30:30.177Z,98702.34
2023-02-16T02:33:25.196Z,98703.31
2023-02-16T02:36:07.375Z,98704.19
2023-02-16T02:38:49.250Z,98701.50
2023-02-16T02:41:45.874Z,98710.19
2023-02-16T02:44:19.036Z,98707.66
2023-02-16T02:46:48.236Z,98708.41
2023-02-16T02:49:17.172Z,98704.09
2023-02-16T02:51:45.493Z,98709.28
2023-02-16T02:54:35.888Z,98692.66
2023-02-16T02:57:27.522Z,98696.97
2023-02-16T03:00:20.155Z,98701.41
2023-02-16T03:02:52.596Z,98693.56
2023-02-16T03:05:23.471Z,98704.81
2023-02-16T03:07:57.433Z,98698.66
2023-02-16T03:11:00.723Z,98702.97
2023-02-16T03:13:34.843Z,98702.34
2023-02-16T03:16:09.531Z,98710.19
2023-02-16T03:18:58.412Z,98703.09
2023-02-16T03:21:45.819Z,98703.19
2023-02-16T03:24:38.252Z,98695.53
2023-02-16T03:27:24.818Z,98701.78
2023-02-16T03:29:54.225Z,98702.75
2023-02-16T03:32:24.215Z,98700.91
2023-02-16T03:34:52.580Z,98705.25
2023-02-16T03:37:21.238Z,98706.22
2023-02-16T03:40:08.156Z,98703.66
2023-02-16T03:42:36.477Z,98702.91
2023-02-16T03:45:05.150Z,98706.41
2023-02-16T03:47:34.778Z,98714.25
2023-02-16T03:50:03.009Z,98707.34
2023-02-16T03:52:31.263Z,98708.19
2023-02-16T03:55:00.533Z,98715.97
2023-02-16T03:57:28.841Z,98712.44
2023-02-16T03:59:59.236Z,98715.06
2023-02-16T04:02:28.860Z,98711.72
2023-02-16T04:04:58.568Z,98711.72
2023-02-16T04:07:26.819Z,98716.06
2023-02-16T04:09:55.057Z,98709.03
2023-02-16T04:12:37.551Z,98717.72
2023-02-16T04:15:08.618Z,98716.88
2023-02-16T04:17:37.072Z,98718.59
2023-02-16T04:20:11.937Z,98723.75
2023-02-16T04:22:40.358Z,98707.13
2023-02-16T04:25:09.661Z,98715.72
2023-02-16T04:27:39.007Z,98706.06
2023-02-16T04:30:10.156Z,98706.06
2023-02-16T04:32:38.500Z,98704.31
2023-02-16T04:35:08.993Z,98709.47
2023-02-16T04:37:37.605Z,98704.31
2023-02-16T04:40:08.607Z,98713.78
2023-02-16T04:42:36.869Z,98708.47
2023-02-16T04:45:05.535Z,98707.59
2023-02-16T04:47:33.789Z,98704.19
2023-02-16T04:50:02.123Z,98710.34
2023-02-16T04:52:32.203Z,98702.50
2023-02-16T04:55:00.481Z,98712.94
2023-02-16T04:57:28.890Z,98715.50
2023-02-16T04:59:57.177Z,98719.88
2023-02-16T05:02:25.421Z,98718.13
2023-02-16T05:04:53.706Z,98705.88
2023-02-16T05:07:21.964Z,98718.03
2023-02-16T05:09:51.785Z,98711.03
2023-02-16T05:12:37.595Z,98720.00
2023-02-16T05:15:07.455Z,98720.22
2023-02-16T05:17:35.671Z,98714.97
2023-02-16T05:20:04.043Z,98712.56
2023-02-16T05:22:33.585Z,98709.31
2023-02-16T05:25:03.281Z,98711.16
2023-02-16T05:27:32.203Z,98715.47
2023-02-16T05:30:00.943Z,98711.97
2023-02-16T05:32:29.410Z,98698.91
2023-02-16T05:34:57.602Z,98703.31
2023-02-16T05:37:25.880Z,98698.84
2023-02-16T05:39:54.207Z,98705.00
2023-02-16T05:42:23.824Z,98716.38
2023-02-16T05:44:52.023Z,98714.75
2023-02-16T05:47:20.230Z,98716.59
2023-02-16T05:49:48.476Z,98718.34
2023-02-16T05:52:16.758Z,98727.13
2023-02-16T05:54:45.064Z,98729.06
2023-02-16T05:57:13.308Z,98732.69
2023-02-16T05:59:42.899Z,98729.28
2023-02-16T06:02:11.414Z,98727.53
2023-02-16T06:04:39.729Z,98736.22
2023-02-16T06:07:08.022Z,98725.09
2023-02-16T06:09:36.314Z,98733.81
2023-02-16T06:12:05.125Z,98737.25
2023-02-16T06:14:33.406Z,98738.25
2023-02-16T06:17:03.775Z,98748.81
2023-02-16T06:19:32.465Z,98754.13
2023-02-16T06:22:00.737Z,98745.41
2023-02-16T06:24:29.652Z,98744.66
2023-02-16T06:26:58.028Z,98751.50
2023-02-16T06:29:26.637Z,98754.06
2023-02-16T06:31:54.983Z,98746.16
2023-02-16T06:34:24.803Z,98748.63
2023-02-16T06:36:53.054Z,98752.09
2023-02-16T06:39:21.449Z,98752.81
2023-02-16T06:41:49.722Z,98760.56
2023-02-16T06:44:18.514Z,98757.97
2023-02-16T06:46:48.715Z,98766.59
2023-02-16T06:49:19.083Z,98764.13
2023-02-16T06:51:49.606Z,98773.50
2023-02-16T06:54:19.254Z,98778.88
2023-02-16T06:56:47.584Z,98777.25
2023-02-16T06:59:16.060Z,98770.41
2023-02-16T07:01:45.459Z,98766.06
2023-02-16T07:04:14.190Z,98778.38
2023-02-16T07:06:42.858Z,98782.81
2023-02-16T07:09:13.046Z,98781.88
2023-02-16T07:11:41.518Z,98790.59
2023-02-16T07:14:09.741Z,98790.59
2023-02-16T07:16:38.271Z,98791.44
2023-02-16T07:19:06.994Z,98795.81
2023-02-16T07:21:35.609Z,98790.44
2023-02-16T07:24:04.186Z,98790.44
2023-02-16T07:26:33.863Z,98793.84
2023-02-16T07:29:02.132Z,98797.31
2023-02-16T07:31:30.439Z,98797.25
2023-02-16T07:33:58.751Z,98804.94
2023-02-16T07:36:27.073Z,98803.25
2023-02-16T07:38:55.725Z,98807.88
2023-02-16T07:41:23.952Z,98799.78
2023-02-16T07:43:53.527Z,98798.97
2023-02-16T07:46:21.799Z,98807.63
2023-02-16T07:48:50.226Z,98794.56
2023-02-16T07:51:23.706Z,98799.09
2023-02-16T07:53:52.213Z,98806.75
2023-02-16T07:56:21.932Z,98810.97
2023-02-16T07:58:54.029Z,98811.84
2023-02-16T08:01:23.154Z,98806.44
2023-02-16T08:03:52.134Z,98798.47
2023-02-16T08:06:21.355Z,98799.19
2023-02-16T08:08:50.011Z,98808.66
2023-02-16T08:11:20.484Z,98799.06
2023-02-16T08:13:49.327Z,98804.03
2023-02-16T08:16:21.350Z,98811.03
2023-02-16T08:18:51.309Z,98810.13
2023-02-16T08:21:23.673Z,98810.13
2023-02-16T08:23:57.386Z,98813.63
2023-02-16T08:26:28.756Z,98829.31
2023-02-16T08:28:59.579Z,98824.88
2023-02-16T08:31:32.283Z,98835.22
2023-02-16T08:34:03.049Z,98832.47
2023-02-16T08:36:34.562Z,98831.41
2023-02-16T08:39:05.143Z,98832.06
2023-02-16T08:41:36.186Z,98833.63
2023-02-16T08:44:05.799Z,98834.50
2023-02-16T08:46:37.402Z,98836.97
2023-02-16T08:49:06.198Z,98837.75
2023-02-16T08:51:38.040Z,98822.13
2023-02-16T08:54:08.574Z,98828.91
2023-02-16T08:56:37.972Z,98827.84
2023-02-16T08:59:06.196Z,98821.56
2023-02-16T09:01:35.960Z,98831.97
2023-02-16T09:04:04.240Z,98830.06
2023-02-16T09:06:33.101Z,98834.25
2023-02-16T09:09:01.421Z,98840.19
2023-02-16T09:11:29.694Z,98831.28
2023-02-16T09:13:58.459Z,98833.69
2023-02-16T09:16:29.228Z,98823.00
2023-02-16T09:18:58.895Z,98835.13
2023-02-16T09:21:27.422Z,98829.69
2023-02-16T09:23:58.251Z,98830.44
2023-02-16T09:26:29.259Z,98835.41
2023-02-16T09:28:59.118Z,98826.47
2023-02-16T09:31:31.144Z,98824.56
2023-02-16T09:34:04.781Z,98819.19
2023-02-16T09:36:33.779Z,98816.34
2023-02-16T09:39:02.461Z,98825.72
2023-02-16T09:41:44.703Z,98820.34
2023-02-16T09:44:39.315Z,98819.22
2023-02-16T09:47:22.387Z,98821.63
2023-02-16T09:49:54.029Z,98814.53
2023-02-16T09:52:31.194Z,98810.84
2023-02-16T09:55:01.442Z,98822.81
2023-02-16T09:57:43.585Z,98816.56
2023-02-16T10:00:28.096Z,98811.94
2023-02-16T10:03:03.998Z,98807.31
2023-02-16T10:05:46.395Z,98807.09
2023-02-16T10:08:18.108Z,98809.34
2023-02-16T10:10:52.023Z,98814.22
2023-02-16T10:13:32.052Z,98809.38
2023-02-16T10:16:02.960Z,98808.13
2023-02-16T10:18:35.296Z,98804.88
2023-02-16T10:21:15.334Z,98816.69
2023-02-16T10:23:50.402Z,98811.81
2023-02-16T10:26:24.550Z,98808.81
2023-02-16T10:28:58.816Z,98807.47
2023-02-16T10:31:35.404Z,98802.59
2023-02-16T10:34:21.274Z,98802.13
2023-02-16T10:37:22.264Z,98806.03
2023-02-16T10:40:04.159Z,98801.22
2023-02-16T10:42:41.886Z,98806.91
2023-02-16T10:45:27.139Z,98804.63
2023-02-16T10:47:55.935Z,98795.22
2023-02-16T10:50:29.570Z,98788.38
2023-02-16T10:53:03.047Z,98793.72
2023-02-16T10:55:31.333Z,98795.16
2023-02-16T10:58:02.639Z,98789.59
2023-02-16T11:00:48.349Z,98785.91
2023-02-16T11:03:17.484Z,98774.31
2023-02-16T11:05:45.768Z,98773.13
2023-02-16T11:08:15.427Z,98766.66
2023-02-16T11:10:50.500Z,98763.34
2023-02-16T11:13:29.291Z,98757.59
2023-02-16T11:16:01.828Z,98744.28
2023-02-16T11:18:37.878Z,98749.03
2023-02-16T11:21:08.044Z,98741.56
2023-02-16T11:23:40.501Z,98740.84
2023-02-16T11:26:24.131Z,98734.25
2023-02-16T11:28:53.746Z,98732.38
2023-02-16T11:31:30.264Z,98732.19
2023-02-16T11:34:05.482Z,98725.84
2023-02-16T11:36:37.648Z,98727.41
2023-02-16T11:39:16.655Z,98714.84
2023-02-16T11:41:47.152Z,98711.22
2023-02-16T11:44:29.063Z,98714.69
2023-02-16T11:46:58.800Z,98705.25
2023-02-16T11:49:34.469Z,98707.56
2023-02-16T11:52:22.279Z,98701.22
2023-02-16T11:54:53.944Z,98702.63
2023-02-16T11:57:28.546Z,98700.09
2023-02-16T11:59:58.734Z,98705.25
2023-02-16T12:03:10.858Z,98712.13
2023-02-16T12:05:58.290Z,98710.19
2023-02-16T12:08:42.995Z,98703.75
2023-02-16T12:11:29.274Z,98691.75
2023-02-16T12:14:14.345Z,98687.81
2023-02-16T12:16:51.967Z,98686.66
2023-02-16T12:19:34.949Z,98679.31
2023-02-16T12:22:17.157Z,98680.78
2023-02-16T12:24:57.918Z,98683.09
2023-02-16T12:27:35.342Z,98670.59
2023-02-16T12:30:19.948Z,98667.59
2023-02-16T12:33:06.355Z,98659.31
2023-02-16T12:36:05.477Z,98665.00
2023-02-16T12:38:47.904Z,98656.59
2023-02-16T12:41:29.332Z,98646.00
2023-02-16T12:44:03.890Z,98645.56
2023-02-16T12:46:37.723Z,98636.53
2023-02-16T12:49:15.093Z,98640.38
2023-02-16T12:51:49.903Z,98635.34
2023-02-16T12:54:25.283Z,98625.97
2023-02-16T12:57:01.853Z,98619.09
2023-02-16T12:59:40.251Z,98610.94
2023-02-16T13:02:19.859Z,98603.59
2023-02-16T13:04:55.789Z,98598.31
2023-02-16T13:07:30.798Z,98594.44
2023-02-16T13:10:05.845Z,98605.28
2023-02-16T13:12:40.009Z,98601.78
2023-02-16T13:15:15.675Z,98594.69
2023-02-16T13:17:49.524Z,98593.72
2023-02-16T13:20:20.736Z,98598.16
2023-02-16T13:23:30.422Z,98593.78
2023-02-16T13:26:19.015Z,98592.22
2023-02-16T13:29:22.844Z,98591.19
2023-02-16T13:32:09.208Z,98600.22
2023-02-16T13:35:23.189Z,98598.03
2023-02-16T13:38:06.630Z,98594.31
2023-02-16T13:41:06.643Z,98589.69
2023-02-16T13:43:37.708Z,98588.00
2023-02-16T13:46:14.889Z,98595.97
2023-02-16T13:48:52.933Z,98590.19
2023-02-16T13:51:25.168Z,98588.78
2023-02-16T13:53:57.910Z,98594.69
2023-02-16T13:56:36.464Z,98598.97
2023-02-16T13:59:55.915Z,98596.19
2023-02-16T14:03:00.380Z,98589.34
2023-02-16T14:05:41.668Z,98590.09
2023-02-16T14:08:25.547Z,98593.47
2023-02-16T14:11:10.969Z,98594.25
2023-02-16T14:13:51.340Z,98591.69
2023-02-16T14:16:34.930Z,98591.44
2023-02-16T14:19:21.135Z,98587.81
2023-02-16T14:21:52.073Z,98581.44
2023-02-16T14:24:35.725Z,98571.69
2023-02-16T14:27:06.321Z,98575.66
2023-02-16T14:29:39.473Z,98581.69
2023-02-16T14:32:24.384Z,98579.63
2023-02-16T14:34:57.962Z,98580.09
2023-02-16T14:37:37.519Z,98582.47
2023-02-16T14:40:19.593Z,98583.28
2023-02-16T14:42:58.231Z,98583.03
2023-02-16T14:46:29.026Z,98575.16
2023-02-16T14:49:48.678Z,98580.63
2023-02-16T14:53:07.064Z,98582.69
2023-02-16T14:56:18.393Z,98586.88
2023-02-16T14:58:56.416Z,98586.56
2023-02-16T15:01:26.220Z,98585.13
2023-02-16T15:03:58.098Z,98584.81
2023-02-16T15:06:34.549Z,98581.16
2023-02-16T15:09:15.978Z,98578.34
2023-02-16T15:12:08.927Z,98580.59
2023-02-16T15:14:45.202Z,98571.63
2023-02-16T15:17:28.073Z,98577.34
2023-02-16T15:20:05.356Z,98583.06
2023-02-16T15:22:33.798Z,98579.06
2023-02-16T15:25:08.755Z,98579.41
2023-02-16T15:27:37.234Z,98583.38
2023-02-16T15:30:10.448Z,98575.91
2023-02-16T15:32:39.026Z,98580.69
2023-02-16T15:35:24.621Z,98573.28
2023-02-16T15:38:03.146Z,98577.38
2023-02-16T15:40:35.184Z,98575.16
2023-02-16T15:43:20.985Z,98581.81
2023-02-16T15:45:52.987Z,98583.19
2023-02-16T15:48:29.321Z,98588.03
2023-02-16T15:51:03.373Z,98586.84
2023-02-16T15:53:38.257Z,98588.94
2023-02-16T15:56:29.542Z,98582.50
2023-02-16T15:59:00.915Z,98587.09
2023-02-16T16:01:34.069Z,98587.66
2023-02-16T16:04:06.987Z,98594.16
2023-02-16T16:06:38.794Z,98594.66
2023-02-16T16:09:08.637Z,98589.06
2023-02-16T16:11:38.959Z,98599.59
2023-02-16T16:14:08.315Z,98599.25
2023-02-16T16:16:36.893Z,98608.41
2023-02-16T16:19:16.828Z,98596.44
2023-02-16T16:21:54.413Z,98600.34
2023-02-16T16:24:35.055Z,98595.25
2023-02-16T16:27:08.560Z,98602.63
2023-02-16T16:29:42.051Z,98599.44
2023-02-16T16:32:21.330Z,98611.84
2023-02-16T16:34:50.761Z,98609.59
2023-02-16T16:37:29.437Z,98601.16
2023-02-16T16:40:05.711Z,98605.75
2023-02-16T16:42:39.192Z,98612.19
2023-02-16T16:45:35.713Z,98609.94
2023-02-16T16:48:11.249Z,98609.34
2023-02-16T16:50:40.688Z,98614.72
2023-02-16T16:53:45.712Z,98618.59
2023-02-16T16:56:15.254Z,98613.50
2023-02-16T16:58:45.004Z,98613.59
2023-02-16T17:01:14.474Z,98612.03
2023-02-16T17:03:43.230Z,98613.88
2023-02-16T17:06:11.953Z,98608.72
2023-02-16T17:08:41.356Z,98622.81
2023-02-16T17:11:13.646Z,98623.94
2023-02-16T17:13:42.064Z,98617.00
2023-02-16T17:16:18.102Z,98629.47
2023-02-16T17:18:46.533Z,98632.19
2023-02-16T17:21:15.703Z,98628.16
2023-02-16T17:23:52.510Z,98632.47
2023-02-16T17:26:22.214Z,98631.84
2023-02-16T17:28:51.086Z,98627.59
2023-02-16T17:31:20.923Z,98621.69
2023-02-16T17:33:49.330Z,98621.88
2023-02-16T17:36:18.358Z,98625.81
2023-02-16T17:38:46.877Z,98621.38
2023-02-16T17:41:22.795Z,98630.31
2023-02-16T17:43:51.574Z,98629.47
2023-02-16T17:46:24.069Z,98632.09
2023-02-16T17:48:55.139Z,98629.56
2023-02-16T17:51:26.170Z,98627.88
2023-02-16T17:53:55.656Z,98627.97
2023-02-16T17:56:25.413Z,98624.47
2023-02-16T17:58:53.728Z,98628.06
2023-02-16T18:01:23.969Z,98631.53
2023-02-16T18:03:53.081Z,98624.56
2023-02-16T18:06:28.105Z,98622.94
2023-02-16T18:08:57.175Z,98617.78
2023-02-16T18:11:25.538Z,98625.75
2023-02-16T18:13:53.986Z,98617.00
2023-02-16T18:16:28.534Z,98619.00
2023-02-16T18:18:58.133Z,98613.75
2023-02-16T18:21:26.449Z,98616.47
2023-02-16T18:23:54.725Z,98612.13
2023-02-16T18:26:23.790Z,98616.72
2023-02-16T18:28:52.036Z,98611.56
2023-02-16T18:31:20.624Z,98616.91
2023-02-16T18:33:50.321Z,98612.47
2023-02-16T18:36:18.792Z,98616.91
2023-02-16T18:38:47.052Z,98612.47
2023-02-16T18:41:15.471Z,98607.31
2023-02-16T18:43:43.744Z,98609.13
2023-02-16T18:46:12.240Z,98608.25
2023-02-16T18:48:40.660Z,98609.22
2023-02-16T18:51:12.312Z,98603.94
2023-02-16T18:53:41.010Z,98606.50
2023-02-16T18:56:12.465Z,98607.41
2023-02-16T18:58:40.932Z,98610.03
2023-02-16T19:01:16.159Z,98613.69
2023-02-16T19:03:44.574Z,98608.44
2023-02-16T19:06:14.221Z,98606.75
2023-02-16T19:08:42.519Z,98606.75
2023-02-16T19:11:10.826Z,98612.09
2023-02-16T19:13:39.066Z,98612.09
2023-02-16T19:16:08.319Z,98613.03
2023-02-16T19:18:36.901Z,98613.03
2023-02-16T19:21:07.876Z,98608.81
2023-02-16T19:23:38.419Z,98617.63
2023-02-16T19:26:08.566Z,98623.06
2023-02-16T19:28:36.788Z,98621.19
2023-02-16T19:31:08.126Z,98602.31
2023-02-16T19:33:36.977Z,98615.19
2023-02-16T19:36:08.480Z,98617.91
2023-02-16T19:38:38.634Z,98617.91
2023-02-16T19:41:12.064Z,98622.38
2023-02-16T19:43:41.099Z,98620.63
2023-02-16T19:46:10.371Z,98617.03
2023-02-16T19:48:39.722Z,98608.34
2023-02-16T19:51:09.777Z,98609.16
2023-02-16T19:53:40.691Z,98617.81
2023-02-16T19:56:11.272Z,98610.88
2023-02-16T19:58:40.062Z,98599.41
2023-02-16T20:01:10.255Z,98602.91
2023-02-16T20:03:38.672Z,98595.84
2023-02-16T20:06:15.828Z,98586.28
2023-02-16T20:08:46.266Z,98588.03
2023-02-16T20:11:15.597Z,98587.97
2023-02-16T20:13:44.328Z,98592.28
2023-02-16T20:16:15.189Z,98594.94
2023-02-16T20:18:44.278Z,98595.00
2023-02-16T20:21:15.036Z,98586.28
2023-02-16T20:23:45.835Z,98581.97
2023-02-16T20:26:17.860Z,98585.50
2023-02-16T20:28:47.137Z,98585.59
2023-02-16T20:31:19.253Z,98589.09
2023-02-16T20:33:47.879Z,98580.59
2023-02-16T20:36:17.165Z,98576.41
2023-02-16T20:38:47.304Z,98590.28
2023-02-16T20:41:15.930Z,98607.75
2023-02-16T20:43:44.907Z,98599.00
2023-02-16T20:46:14.990Z,98585.13
2023-02-16T20:48:43.249Z,98581.72
2023-02-16T20:51:13.933Z,98578.34
2023-02-16T20:53:42.244Z,98579.09
2023-02-16T20:56:15.865Z,98581.72
2023-02-16T20:58:46.640Z,98572.91
2023-02-16T21:01:16.719Z,98565.13
2023-02-16T21:03:45.296Z,98566.91
2023-02-16T21:06:13.807Z,98569.53
2023-02-16T21:08:42.153Z,98565.22
2023-02-16T21:11:11.912Z,98570.47
2023-02-16T21:13:41.893Z,98567.09
2023-02-16T21:16:10.592Z,98560.03
2023-02-16T21:18:40.608Z,98565.38
2023-02-16T21:21:09.968Z,98557.69
2023-02-16T21:23:38.388Z,98558.53
2023-02-16T21:26:07.712Z,98554.31
2023-02-16T21:28:37.675Z,98557.84
2023-02-16T21:31:09.825Z,98559.75
2023-02-16T21:33:39.002Z,98550.06
2023-02-16T21:36:11.182Z,98551.88
2023-02-16T21:38:41.974Z,98555.31
2023-02-16T21:41:25.530Z,98546.53
2023-02-16T21:43:59.611Z,98548.38
2023-02-16T21:46:29.519Z,98536.19
2023-02-16T21:48:57.523Z,98544.81
2023-02-16T21:51:28.849Z,98546.63
2023-02-16T21:53:58.214Z,98549.25
2023-02-16T21:56:33.589Z,98551.97
2023-02-16T21:59:03.665Z,98550.34
2023-02-16T22:01:34.623Z,98563.47
2023-02-16T22:04:03.904Z,98561.78
2023-02-16T22:06:36.239Z,98556.63
2023-02-16T22:09:08.750Z,98554.00
2023-02-16T22:11:37.336Z,98547.06
2023-02-16T22:14:07.651Z,98539.38
2023-02-16T22:16:38.575Z,98533.25
2023-02-16T22:19:10.300Z,98536.81
2023-02-16T22:21:41.413Z,98530.72
2023-02-16T22:24:12.545Z,98536.06
2023-02-16T22:26:41.068Z,98547.34
2023-02-16T22:29:11.538Z,98535.19
2023-02-16T22:31:40.565Z,98550.03
2023-02-16T22:34:13.425Z,98550.03
2023-02-16T22:36:41.839Z,98550.13
2023-02-16T22:39:13.745Z,98544.88
2023-02-16T22:41:42.011Z,98557.94
2023-02-16T22:44:12.479Z,98538.00
2023-02-16T22:46:40.835Z,98531.75
2023-02-16T22:49:10.891Z,98550.97
2023-02-16T22:51:39.723Z,98555.38
2023-02-16T22:54:08.368Z,98550.03
2023-02-16T22:56:36.700Z,98550.03
2023-02-16T22:59:05.010Z,98554.44
2023-02-16T23:01:35.082Z,98549.19
2023-02-16T23:04:03.455Z,98556.13
2023-02-16T23:06:34.390Z,98543.84
2023-02-16T23:09:06.766Z,98548.25
2023-02-16T23:11:36.241Z,98537.75
2023-02-16T23:14:04.898Z,98528.28
2023-02-16T23:16:34.722Z,98549.97
2023-02-16T23:19:03.016Z,98552.59
2023-02-16T23:21:33.866Z,98561.47
2023-02-16T23:24:02.302Z,98566.63
2023-02-16T23:26:32.142Z,98569.25
2023-02-16T23:29:02.627Z,98561.38
2023-02-16T23:31:34.887Z,98557.94
2023-02-16T23:34:03.630Z,98546.56
2023-02-16T23:36:32.670Z,98537.91
2023-02-16T23:39:01.736Z,98537.28
2023-02-16T23:41:30.571Z,98538.13
2023-02-16T23:44:00.946Z,98520.66
2023-02-16T23:46:29.984Z,98526.00
2023-02-16T23:48:59.633Z,98515.69
2023-02-16T23:51:28.418Z,98518.38
2023-02-16T23:53:56.715Z,98514.00
2023-02-16T23:56:27.479Z,98524.50
2023-02-16T23:58:59.670Z,98510.59
